Time;durP1;ratioP1;P1;durP2;ratioP2;P2;SDS_P1;SDS_P2;PMS_P1;PMS_P2;Temp;Humidity;BMP_temperature;BMP_pressure;BME280_temperature;BME280_humidity;BME280_pressure;Samples;Min_cycle;Max_cycle;Signal;HPM_P1;HPM_P2
2023/12/09 00:01:30;;;;;;;49.30;25.70;;;;;;;0.29;100.00;100519.02;105089;1262;71675;-53
2023/12/09 00:03:59;;;;;;;54.20;26.10;;;;;;;0.28;100.00;100511.77;105030;1259;81755;-55
2023/12/09 00:06:27;;;;;;;49.60;26.10;;;;;;;0.24;100.00;100506.09;105040;1259;72228;-54
2023/12/09 00:08:55;;;;;;;49.20;24.80;;;;;;;0.22;100.00;100507.29;105039;1262;69146;-53
2023/12/09 00:11:24;;;;;;;44.50;23.90;;;;;;;0.23;100.00;100513.31;105032;1262;69189;-55
2023/12/09 00:13:52;;;;;;;49.70;26.10;;;;;;;0.26;100.00;100518.64;105031;1261;73391;-51
2023/12/09 00:16:20;;;;;;;47.80;25.80;;;;;;;0.28;100.00;100514.02;105014;1262;83084;-54
2023/12/09 00:18:48;;;;;;;43.60;24.10;;;;;;;0.30;100.00;100511.27;105081;1260;71949;-55
2023/12/09 00:21:17;;;;;;;42.70;23.60;;;;;;;0.28;100.00;100512.30;105018;1260;69132;-52
2023/12/09 00:23:45;;;;;;;44.50;23.00;;;;;;;0.27;100.00;100510.23;105129;1262;69203;-55
2023/12/09 00:26:15;;;;;;;48.80;25.70;;;;;;;0.26;100.00;100510.58;105112;1259;73392;-55
2023/12/09 00:28:44;;;;;;;48.60;26.70;;;;;;;0.25;100.00;100512.45;105024;1261;83047;-53
2023/12/09 00:31:13;;;;;;;50.70;29.50;;;;;;;0.24;100.00;100517.94;105075;1260;70673;-54
2023/12/09 00:33:41;;;;;;;49.30;27.50;;;;;;;0.24;100.00;100522.77;105145;1259;69103;-53
2023/12/09 00:36:10;;;;;;;41.70;23.10;;;;;;;0.24;100.00;100524.48;105088;1261;69222;-56
2023/12/09 00:38:39;;;;;;;42.50;24.10;;;;;;;0.22;100.00;100525.67;105091;1260;73305;-55
2023/12/09 00:41:08;;;;;;;43.60;23.40;;;;;;;0.22;100.00;100524.12;105125;1259;80103;-54
2023/12/09 00:43:36;;;;;;;41.50;22.90;;;;;;;0.22;100.00;100533.40;105095;1263;71609;-53
2023/12/09 00:46:05;;;;;;;43.60;24.00;;;;;;;0.22;100.00;100533.56;105099;1263;69178;-55
2023/12/09 00:48:33;;;;;;;49.70;24.60;;;;;;;0.21;100.00;100538.38;105064;1258;69228;-55
2023/12/09 00:51:02;;;;;;;43.00;24.10;;;;;;;0.20;100.00;100535.63;105030;1261;73284;-55
2023/12/09 00:53:30;;;;;;;40.30;23.00;;;;;;;0.21;100.00;100533.73;105044;1262;82665;-55
2023/12/09 00:55:58;;;;;;;42.10;22.60;;;;;;;0.19;100.00;100533.73;105052;1262;70647;-53
2023/12/09 00:58:26;;;;;;;41.50;22.70;;;;;;;0.19;100.00;100537.33;105046;1258;69191;-54
2023/12/09 01:00:54;;;;;;;44.60;25.10;;;;;;;0.20;100.00;100536.14;105046;1259;69250;-54
2023/12/09 01:03:22;;;;;;;44.90;25.10;;;;;;;0.18;100.00;100531.31;105068;1259;72941;-54
2023/12/09 01:05:51;;;;;;;42.40;23.40;;;;;;;0.16;100.00;100529.06;105056;1262;82925;-56
2023/12/09 01:08:19;;;;;;;48.00;23.50;;;;;;;0.17;100.00;100531.30;105036;1262;71672;-55
2023/12/09 01:10:47;;;;;;;44.10;23.30;;;;;;;0.16;100.00;100528.38;105129;1262;69077;-55
2023/12/09 01:13:16;;;;;;;44.00;23.20;;;;;;;0.16;100.00;100526.65;105041;1261;69094;-55
2023/12/09 01:15:44;;;;;;;43.30;23.30;;;;;;;0.14;100.00;100523.38;105057;1259;72948;-55
2023/12/09 01:18:12;;;;;;;42.70;23.10;;;;;;;0.14;100.00;100521.65;105061;1260;81020;-55
2023/12/09 01:20:40;;;;;;;42.60;23.70;;;;;;;0.13;100.00;100526.80;105061;1262;71856;-55
2023/12/09 01:23:08;;;;;;;43.30;23.50;;;;;;;0.13;100.00;100529.71;105112;1260;69134;-55
2023/12/09 01:25:36;;;;;;;42.10;23.60;;;;;;;0.13;100.00;100527.83;105050;1262;69216;-55
2023/12/09 01:28:04;;;;;;;39.60;23.10;;;;;;;0.13;100.00;100524.56;105058;1257;72079;-55
2023/12/09 01:30:33;;;;;;;41.10;23.70;;;;;;;0.14;100.00;100521.30;105080;1260;82553;-54
2023/12/09 01:33:01;;;;;;;41.30;24.00;;;;;;;0.15;100.00;100522.18;105091;1258;73218;-56
2023/12/09 01:35:29;;;;;;;40.00;22.90;;;;;;;0.17;100.00;100524.77;105080;1259;69094;-55
2023/12/09 01:37:58;;;;;;;39.40;22.00;;;;;;;0.16;100.00;100521.33;105054;1258;69157;-55
2023/12/09 01:40:26;;;;;;;41.50;23.30;;;;;;;0.17;100.00;100520.30;105059;1262;71597;-55
2023/12/09 01:42:54;;;;;;;38.60;21.90;;;;;;;0.17;100.00;100517.90;105080;1262;83111;-55
2023/12/09 01:45:22;;;;;;;40.00;22.60;;;;;;;0.18;100.00;100520.33;105032;1262;72136;-56
2023/12/09 01:47:51;;;;;;;38.70;22.30;;;;;;;0.19;100.00;100519.46;105059;1258;69139;-57
2023/12/09 01:50:19;;;;;;;43.40;23.20;;;;;;;0.20;100.00;100521.70;105138;1262;69283;-56
2023/12/09 01:52:48;;;;;;;37.80;22.00;;;;;;;0.23;100.00;100524.13;105197;1260;71650;-56
2023/12/09 01:55:16;;;;;;;38.20;21.60;;;;;;;0.25;100.00;100527.23;105064;1262;81366;-56
2023/12/09 01:57:44;;;;;;;37.20;22.20;;;;;;;0.24;100.00;100526.54;105048;1260;71606;-55
2023/12/09 02:00:13;;;;;;;40.30;23.00;;;;;;;0.25;100.00;100527.23;105051;1260;69096;-55
2023/12/09 02:02:41;;;;;;;38.70;22.70;;;;;;;0.25;100.00;100528.95;105121;1258;69071;-56
2023/12/09 02:05:10;;;;;;;40.80;22.20;;;;;;;0.25;100.00;100527.75;105016;1260;73928;-55
2023/12/09 02:07:38;;;;;;;41.20;22.80;;;;;;;0.24;100.00;100526.38;105134;1259;81623;-56
2023/12/09 02:10:07;;;;;;;38.10;23.20;;;;;;;0.23;100.00;100524.48;105040;1262;72152;-56
2023/12/09 02:12:38;;;;;;;40.90;23.70;;;;;;;0.22;100.00;100527.38;105086;1257;69129;-54
2023/12/09 02:15:11;;;;;;;36.90;21.80;;;;;;;0.23;100.00;100526.02;105056;1259;69142;-56
2023/12/09 02:18:04;;;;;;;40.70;23.20;;;;;;;0.23;100.00;100527.56;105133;1262;72547;-56
2023/12/09 02:20:32;;;;;;;38.30;21.00;;;;;;;0.22;100.00;100530.99;105124;1262;81512;-56
2023/12/09 02:23:11;;;;;;;35.70;21.20;;;;;;;0.21;100.00;100527.20;105023;1263;73171;-57
2023/12/09 02:25:40;;;;;;;33.00;19.10;;;;;;;0.21;100.00;100526.00;105095;1260;69199;-56
2023/12/09 02:28:12;;;;;;;32.60;20.50;;;;;;;0.21;100.00;100522.39;105080;1263;69173;-57
2023/12/09 02:30:55;;;;;;;37.20;19.90;;;;;;;0.21;100.00;100519.81;105084;1257;74148;-57
2023/12/09 02:33:24;;;;;;;37.90;22.00;;;;;;;0.22;100.00;100521.02;105076;1259;81670;-56
2023/12/09 02:35:53;;;;;;;36.80;21.80;;;;;;;0.21;100.00;100516.04;105038;1261;72198;-57
2023/12/09 02:38:23;;;;;;;34.10;20.10;;;;;;;0.21;100.00;100518.09;105114;1260;69107;-56
2023/12/09 02:40:51;;;;;;;35.50;20.80;;;;;;;0.21;100.00;100516.72;105044;1261;69151;-56
2023/12/09 02:43:19;;;;;;;34.70;21.20;;;;;;;0.22;100.00;100512.27;105073;1259;73277;-58
2023/12/09 02:45:48;;;;;;;35.10;20.70;;;;;;;0.23;100.00;100510.39;105045;1260;81607;-57
2023/12/09 02:48:16;;;;;;;39.60;23.10;;;;;;;0.25;100.00;100510.23;105032;1260;71129;-56
2023/12/09 02:50:44;;;;;;;33.50;19.60;;;;;;;0.25;100.00;100511.92;105044;1262;69125;-59
2023/12/09 02:53:14;;;;;;;36.20;21.10;;;;;;;0.24;100.00;100508.50;105050;1260;69695;-57
2023/12/09 02:55:42;;;;;;;40.70;22.70;;;;;;;0.23;100.00;100515.36;105080;1262;72325;-57
2023/12/09 02:58:10;;;;;;;33.50;20.60;;;;;;;0.23;100.00;100513.82;105107;1258;81982;-57
2023/12/09 03:00:38;;;;;;;33.90;20.60;;;;;;;0.22;100.00;100517.24;105054;1260;72328;-57
2023/12/09 03:03:07;;;;;;;34.10;19.20;;;;;;;0.23;100.00;100519.15;105169;1260;69138;-58
2023/12/09 03:05:35;;;;;;;32.00;19.40;;;;;;;0.23;100.00;100514.33;105077;1261;69158;-57
2023/12/09 03:08:03;;;;;;;33.90;19.00;;;;;;;0.20;100.00;100510.02;105066;1261;72700;-57
2023/12/09 03:10:31;;;;;;;30.00;19.10;;;;;;;0.20;100.00;100506.23;105088;1260;81552;-57
2023/12/09 03:12:59;;;;;;;30.60;18.40;;;;;;;0.20;100.00;100504.52;105050;1259;72987;-57
2023/12/09 03:15:28;;;;;;;30.10;17.90;;;;;;;0.20;100.00;100501.77;105059;1258;69205;-57
2023/12/09 03:17:56;;;;;;;30.60;19.00;;;;;;;0.20;100.00;100503.84;105126;1260;69202;-57
2023/12/09 03:20:25;;;;;;;33.90;19.60;;;;;;;0.20;100.00;100504.86;105124;1258;72888;-57
2023/12/09 03:22:53;;;;;;;28.70;18.40;;;;;;;0.21;100.00;100504.52;105035;1262;82215;-57
2023/12/09 03:25:21;;;;;;;32.60;19.60;;;;;;;0.20;100.00;100510.36;105077;1259;70554;-57
2023/12/09 03:27:49;;;;;;;33.10;18.90;;;;;;;0.20;100.00;100505.91;105046;1257;69096;-57
2023/12/09 03:30:17;;;;;;;31.70;19.60;;;;;;;0.20;100.00;100510.20;105084;1259;69266;-57
2023/12/09 03:32:46;;;;;;;29.90;17.70;;;;;;;0.20;100.00;100501.27;105099;1257;73448;-56
2023/12/09 03:35:14;;;;;;;31.80;17.70;;;;;;;0.21;100.00;100506.23;105064;1262;81385;-57
2023/12/09 03:37:42;;;;;;;30.30;19.60;;;;;;;0.21;100.00;100508.81;105077;1262;73019;-58
2023/12/09 03:40:11;;;;;;;29.40;17.90;;;;;;;0.21;100.00;100506.92;105073;1257;69076;-57
2023/12/09 03:42:39;;;;;;;29.70;17.70;;;;;;;0.22;100.00;100502.80;105026;1258;69225;-55
2023/12/09 03:45:08;;;;;;;30.10;18.40;;;;;;;0.25;100.00;100497.84;105123;1262;73135;-57
2023/12/09 03:47:36;;;;;;;32.20;18.40;;;;;;;0.27;100.00;100498.71;105132;1257;80623;-57
2023/12/09 03:50:05;;;;;;;29.50;17.80;;;;;;;0.28;100.00;100499.41;105065;1260;71785;-57
2023/12/09 03:52:33;;;;;;;31.40;19.10;;;;;;;0.28;100.00;100496.83;105134;1262;69174;-57
2023/12/09 03:55:02;;;;;;;27.80;17.50;;;;;;;0.28;100.00;100494.77;105069;1259;69759;-57
2023/12/09 03:57:30;;;;;;;29.30;17.60;;;;;;;0.29;100.00;100492.72;105080;1257;72698;-57
2023/12/09 03:59:58;;;;;;;31.50;18.70;;;;;;;0.30;100.00;100495.30;105097;1261;81633;-57
2023/12/09 04:02:27;;;;;;;29.30;18.80;;;;;;;0.30;100.00;100504.58;105090;1260;71895;-58
2023/12/09 04:04:56;;;;;;;27.80;17.50;;;;;;;0.30;100.00;100507.68;105069;1260;69118;-56
2023/12/09 04:07:24;;;;;;;31.20;17.40;;;;;;;0.31;100.00;100508.55;105123;1259;69183;-58
2023/12/09 04:09:52;;;;;;;29.60;18.00;;;;;;;0.32;100.00;100508.03;105081;1258;73100;-58
2023/12/09 04:12:20;;;;;;;29.80;17.70;;;;;;;0.32;100.00;100506.30;105161;1259;81424;-59
2023/12/09 04:14:48;;;;;;;30.80;18.20;;;;;;;0.31;100.00;100506.81;105057;1262;71391;-59
2023/12/09 04:17:16;;;;;;;28.40;17.30;;;;;;;0.32;100.00;100507.86;105048;1262;69289;-59
2023/12/09 04:19:45;;;;;;;28.00;17.00;;;;;;;0.33;100.00;100508.55;105095;1261;69199;-59
2023/12/09 04:22:13;;;;;;;27.80;17.60;;;;;;;0.34;100.00;100505.47;105030;1260;73611;-59
2023/12/09 04:24:41;;;;;;;28.00;17.70;;;;;;;0.36;100.00;100499.28;105065;1262;81442;-59
2023/12/09 04:27:09;;;;;;;27.00;17.10;;;;;;;0.35;100.00;100500.83;105013;1258;71528;-59
2023/12/09 04:29:38;;;;;;;27.30;16.00;;;;;;;0.35;100.00;100502.38;105022;1262;69155;-60
2023/12/09 04:32:06;;;;;;;27.80;16.80;;;;;;;0.36;100.00;100502.56;105133;1260;69110;-59
2023/12/09 04:34:35;;;;;;;29.40;17.20;;;;;;;0.36;100.00;100503.92;105062;1259;71908;-59
2023/12/09 04:37:03;;;;;;;28.60;17.10;;;;;;;0.37;100.00;100506.52;105109;1262;81153;-59
2023/12/09 04:39:32;;;;;;;27.30;16.50;;;;;;;0.38;100.00;100503.25;105166;1259;72885;-59
2023/12/09 04:42:00;;;;;;;26.70;16.60;;;;;;;0.37;100.00;100505.65;105085;1258;69130;-60
2023/12/09 04:44:28;;;;;;;26.20;16.30;;;;;;;0.37;100.00;100504.80;105031;1262;69179;-59
2023/12/09 04:46:56;;;;;;;26.10;16.90;;;;;;;0.37;100.00;100500.85;105073;1262;72339;-59
2023/12/09 04:49:24;;;;;;;25.30;15.60;;;;;;;0.40;100.00;100501.03;105120;1262;81373;-59
2023/12/09 04:51:53;;;;;;;26.80;16.20;;;;;;;0.41;100.00;100504.30;105091;1258;71597;-59
2023/12/09 04:54:21;;;;;;;26.30;16.70;;;;;;;0.40;100.00;100502.41;105049;1260;69200;-59
2023/12/09 04:56:49;;;;;;;22.60;14.60;;;;;;;0.41;100.00;100499.66;105069;1262;69213;-60
2023/12/09 04:59:17;;;;;;;25.80;15.60;;;;;;;0.42;100.00;100497.45;105023;1260;71345;-60
2023/12/09 05:01:46;;;;;;;25.90;16.80;;;;;;;0.42;100.00;100498.14;105051;1260;81830;-59
2023/12/09 05:04:14;;;;;;;26.40;16.00;;;;;;;0.43;100.00;100503.11;105031;1259;70724;-59
2023/12/09 05:06:43;;;;;;;25.80;16.20;;;;;;;0.42;100.00;100506.03;105111;1262;69098;-59
2023/12/09 05:09:12;;;;;;;27.10;16.10;;;;;;;0.40;100.00;100498.11;105097;1259;69229;-59
2023/12/09 05:11:40;;;;;;;26.20;16.00;;;;;;;0.40;100.00;100497.77;105121;1261;75057;-59
2023/12/09 05:14:08;;;;;;;24.50;15.50;;;;;;;0.40;100.00;100504.13;105064;1260;81922;-60
2023/12/09 05:16:36;;;;;;;24.70;16.30;;;;;;;0.40;100.00;100500.52;105106;1259;70801;-59
2023/12/09 05:19:07;;;;;;;26.00;16.10;;;;;;;0.40;100.00;100500.34;105041;1259;69177;-60
2023/12/09 05:21:36;;;;;;;23.70;15.50;;;;;;;0.39;100.00;100496.23;105045;1262;69735;-60
2023/12/09 05:24:04;;;;;;;23.20;15.30;;;;;;;0.39;100.00;100493.98;105032;1260;72725;-59
2023/12/09 05:26:33;;;;;;;24.30;16.20;;;;;;;0.40;100.00;100497.94;105144;1258;80717;-60
2023/12/09 05:29:03;;;;;;;25.50;16.10;;;;;;;0.40;100.00;100495.88;105101;1258;73185;-59
2023/12/09 05:31:31;;;;;;;27.30;17.30;;;;;;;0.40;100.00;100498.45;105091;1259;69241;-60
2023/12/09 05:33:59;;;;;;;27.30;16.10;;;;;;;0.41;100.00;100496.90;105066;1260;69201;-60
2023/12/09 05:36:28;;;;;;;22.80;15.10;;;;;;;0.41;100.00;100498.45;105099;1258;72920;-60
2023/12/09 05:38:56;;;;;;;24.60;15.20;;;;;;;0.42;100.00;100510.15;105064;1262;81905;-59
2023/12/09 05:41:25;;;;;;;26.70;16.10;;;;;;;0.42;100.00;100510.67;105063;1262;71585;-59
2023/12/09 05:43:53;;;;;;;22.80;15.30;;;;;;;0.41;100.00;100506.36;105049;1257;69171;-59
2023/12/09 05:46:21;;;;;;;25.30;15.50;;;;;;;0.42;100.00;100501.21;105051;1262;69190;-60
2023/12/09 05:48:49;;;;;;;24.40;15.10;;;;;;;0.43;100.00;100505.34;105066;1258;73466;-60
2023/12/09 05:51:18;;;;;;;27.60;15.70;;;;;;;0.44;100.00;100506.05;105028;1262;81533;-59
2023/12/09 05:53:46;;;;;;;27.70;15.60;;;;;;;0.47;100.00;100506.05;105058;1259;71736;-60
2023/12/09 05:56:14;;;;;;;24.60;15.60;;;;;;;0.48;100.00;100505.72;105043;1258;69176;-60
2023/12/09 05:58:42;;;;;;;24.20;16.30;;;;;;;0.46;100.00;100502.77;105069;1262;69192;-60
2023/12/09 06:01:10;;;;;;;26.20;16.40;;;;;;;0.46;100.00;100502.09;105079;1257;72883;-60
2023/12/09 06:03:39;;;;;;;26.80;16.60;;;;;;;0.45;100.00;100503.65;105078;1262;82635;-60
2023/12/09 06:06:07;;;;;;;25.80;16.50;;;;;;;0.42;100.00;100508.45;105061;1259;71377;-59
2023/12/09 06:08:36;;;;;;;26.30;17.60;;;;;;;0.42;100.00;100504.84;105029;1259;69135;-60
2023/12/09 06:11:04;;;;;;;60.70;30.00;;;;;;;0.42;100.00;100507.06;105110;1262;69193;-59
2023/12/09 06:13:32;;;;;;;124.70;57.10;;;;;;;0.44;100.00;100511.89;105090;1257;74010;-60
2023/12/09 06:16:00;;;;;;;120.30;57.50;;;;;;;0.43;100.00;100509.98;105121;1262;82010;-60
2023/12/09 06:18:29;;;;;;;94.30;48.50;;;;;;;0.43;100.00;100512.57;105125;1257;71766;-60
2023/12/09 06:20:57;;;;;;;116.80;61.60;;;;;;;0.43;100.00;100511.02;105024;1257;69204;-60
2023/12/09 06:23:25;;;;;;;69.30;37.90;;;;;;;0.43;100.00;100515.33;105090;1259;69117;-60
2023/12/09 06:25:53;;;;;;;86.70;44.70;;;;;;;0.45;100.00;100513.45;105066;1260;71827;-60
2023/12/09 06:28:21;;;;;;;50.60;26.90;;;;;;;0.47;100.00;100516.54;105017;1262;81756;-59
2023/12/09 06:30:49;;;;;;;58.30;32.20;;;;;;;0.47;100.00;100517.91;105113;1258;71556;-60
2023/12/09 06:33:19;;;;;;;75.50;44.10;;;;;;;0.47;100.00;100512.95;105075;1262;69131;-60
2023/12/09 06:35:47;;;;;;;55.80;32.70;;;;;;;0.47;100.00;100517.56;105045;1262;69166;-60
2023/12/09 06:38:16;;;;;;;65.60;35.60;;;;;;;0.49;100.00;100520.34;105084;1260;72705;-59
2023/12/09 06:40:44;;;;;;;45.30;28.40;;;;;;;0.49;100.00;100522.57;105076;1259;81182;-60
2023/12/09 06:43:12;;;;;;;28.60;19.20;;;;;;;0.50;100.00;100525.14;105028;1258;72861;-60
2023/12/09 06:45:41;;;;;;;39.40;25.50;;;;;;;0.49;100.00;100522.41;105086;1259;69302;-60
2023/12/09 06:48:09;;;;;;;38.10;24.40;;;;;;;0.51;100.00;100523.27;105135;1262;69168;-60
2023/12/09 06:50:38;;;;;;;29.20;20.20;;;;;;;0.53;100.00;100524.67;105035;1257;73054;-60
2023/12/09 06:53:06;;;;;;;28.00;17.40;;;;;;;0.53;100.00;100526.04;105127;1261;81266;-60
2023/12/09 06:55:34;;;;;;;27.50;17.90;;;;;;;0.54;100.00;100523.30;105133;1257;71743;-56
2023/12/09 06:58:03;;;;;;;28.90;18.30;;;;;;;0.54;100.00;100520.54;105166;1257;69094;-57
2023/12/09 07:00:31;;;;;;;27.30;17.10;;;;;;;0.55;100.00;100517.96;105175;1257;69179;-56
2023/12/09 07:02:59;;;;;;;26.40;16.80;;;;;;;0.56;100.00;100518.33;105336;1260;72426;-54
2023/12/09 07:05:28;;;;;;;27.00;17.20;;;;;;;0.58;100.00;100519.02;105331;1261;82812;-55
2023/12/09 07:07:57;;;;;;;28.60;17.20;;;;;;;0.59;100.00;100520.92;105224;1256;71406;-53
2023/12/09 07:10:25;;;;;;;26.20;17.60;;;;;;;0.59;100.00;100521.60;105136;1260;69125;-54
2023/12/09 07:12:53;;;;;;;30.80;17.80;;;;;;;0.58;100.00;100522.45;105230;1260;69238;-57
2023/12/09 07:15:21;;;;;;;27.60;16.50;;;;;;;0.57;100.00;100521.42;105144;1257;72777;-57
2023/12/09 07:17:50;;;;;;;27.80;17.60;;;;;;;0.58;100.00;100520.23;105122;1260;81474;-54
2023/12/09 07:20:18;;;;;;;24.00;16.30;;;;;;;0.58;100.00;100520.92;105115;1257;71377;-50
2023/12/09 07:22:46;;;;;;;25.80;15.40;;;;;;;0.58;100.00;100522.98;105214;1260;69863;-52
2023/12/09 07:25:14;;;;;;;27.80;16.80;;;;;;;0.57;100.00;100515.23;105148;1256;70341;-53
2023/12/09 07:27:42;;;;;;;26.60;16.60;;;;;;;0.58;100.00;100513.17;105127;1256;73035;-53
2023/12/09 07:30:11;;;;;;;25.00;16.70;;;;;;;0.59;100.00;100515.07;105113;1261;81332;-52
2023/12/09 07:32:39;;;;;;;25.10;16.30;;;;;;;0.60;100.00;100512.50;105177;1260;71618;-52
2023/12/09 07:35:08;;;;;;;25.70;16.40;;;;;;;0.62;100.00;100515.77;105129;1257;70014;-51
2023/12/09 07:37:37;;;;;;;26.50;17.50;;;;;;;0.64;100.00;100515.45;105248;1260;69987;-51
2023/12/09 07:40:06;;;;;;;27.20;17.00;;;;;;;0.67;100.00;100510.80;105335;1260;73428;-53
2023/12/09 07:42:34;;;;;;;26.00;16.50;;;;;;;0.67;100.00;100504.10;105221;1260;82529;-52
2023/12/09 07:45:02;;;;;;;25.00;16.80;;;;;;;0.69;100.00;100503.42;105089;1256;71819;-53
2023/12/09 07:47:30;;;;;;;23.20;15.30;;;;;;;0.71;100.00;100501.20;105377;1261;69903;-50
2023/12/09 07:49:59;;;;;;;26.80;16.20;;;;;;;0.73;100.00;100503.62;105134;1261;69955;-51
2023/12/09 07:52:27;;;;;;;27.20;16.20;;;;;;;0.73;100.00;100502.41;105317;1260;73183;-50
2023/12/09 07:54:56;;;;;;;24.10;15.90;;;;;;;0.73;100.00;100500.52;105152;1260;82448;-49
2023/12/09 07:57:24;;;;;;;25.40;17.20;;;;;;;0.76;100.00;100505.69;105145;1257;72811;-54
2023/12/09 07:59:52;;;;;;;24.20;16.60;;;;;;;0.78;100.00;100505.36;105148;1257;69161;-55
2023/12/09 08:02:21;;;;;;;25.70;15.30;;;;;;;0.78;100.00;100499.69;105427;1260;69670;-57
2023/12/09 08:04:49;;;;;;;25.30;16.30;;;;;;;0.79;100.00;100498.14;105167;1261;74055;-51
2023/12/09 08:07:17;;;;;;;25.90;15.80;;;;;;;0.79;100.00;100495.55;105165;1257;81475;-56
2023/12/09 08:09:45;;;;;;;26.40;16.30;;;;;;;0.80;100.00;100493.66;105107;1256;72343;-58
2023/12/09 08:12:13;;;;;;;27.10;17.10;;;;;;;0.81;100.00;100493.52;105121;1257;69166;-58
2023/12/09 08:14:41;;;;;;;25.30;16.60;;;;;;;0.82;100.00;100494.70;105185;1262;69241;-58
2023/12/09 08:17:10;;;;;;;26.90;16.60;;;;;;;0.83;100.00;100491.80;105261;1257;72826;-58
2023/12/09 08:19:38;;;;;;;27.30;17.00;;;;;;;0.83;100.00;100490.06;105253;1256;82210;-57
2023/12/09 08:22:07;;;;;;;28.80;17.00;;;;;;;0.84;100.00;100489.73;105282;1257;71304;-59
2023/12/09 08:24:35;;;;;;;27.10;16.40;;;;;;;0.84;100.00;100484.05;105197;1256;69168;-59
2023/12/09 08:27:03;;;;;;;27.70;17.30;;;;;;;0.84;100.00;100480.45;105126;1260;69223;-59
2023/12/09 08:29:32;;;;;;;26.10;16.60;;;;;;;0.86;100.00;100479.60;105215;1262;72678;-58
2023/12/09 08:32:00;;;;;;;26.80;16.40;;;;;;;0.88;100.00;100478.56;105321;1256;81486;-58
2023/12/09 08:34:29;;;;;;;24.80;16.50;;;;;;;0.90;100.00;100482.52;105093;1259;72856;-58
2023/12/09 08:36:57;;;;;;;26.60;15.70;;;;;;;0.93;100.00;100483.75;105181;1261;69216;-58
2023/12/09 08:39:25;;;;;;;27.60;16.10;;;;;;;0.96;100.00;100485.13;105135;1260;69538;-58
2023/12/09 08:41:53;;;;;;;25.40;16.20;;;;;;;0.97;100.00;100490.48;105128;1260;73014;-57
2023/12/09 08:44:22;;;;;;;28.40;16.20;;;;;;;0.98;100.00;100493.74;105244;1261;81422;-56
2023/12/09 08:46:51;;;;;;;26.40;16.10;;;;;;;1.01;100.00;100494.27;105146;1257;71861;-58
2023/12/09 08:49:19;;;;;;;24.80;16.20;;;;;;;1.00;100.00;100493.23;105114;1257;69083;-58
2023/12/09 08:51:48;;;;;;;26.10;17.20;;;;;;;1.02;100.00;100495.14;105449;1257;69736;-58
2023/12/09 08:54:16;;;;;;;26.50;16.20;;;;;;;1.05;100.00;100494.29;105150;1260;72831;-58
2023/12/09 08:56:44;;;;;;;27.60;17.30;;;;;;;1.08;100.00;100497.22;105127;1261;80138;-56
2023/12/09 08:59:12;;;;;;;26.70;17.50;;;;;;;1.10;100.00;100494.81;105099;1262;71888;-58
2023/12/09 09:01:41;;;;;;;28.60;17.60;;;;;;;1.11;100.00;100497.56;105113;1261;69115;-58
2023/12/09 09:04:09;;;;;;;33.10;19.20;;;;;;;1.12;100.00;100495.52;105261;1261;69128;-58
2023/12/09 09:06:38;;;;;;;29.40;18.80;;;;;;;1.11;100.00;100495.34;105128;1257;73152;-58
2023/12/09 09:09:06;;;;;;;32.40;20.80;;;;;;;1.11;100.00;100495.00;105167;1262;81609;-58
2023/12/09 09:11:34;;;;;;;30.30;19.30;;;;;;;1.14;100.00;100495.52;105132;1261;71804;-58
2023/12/09 09:14:02;;;;;;;34.40;19.30;;;;;;;1.16;100.00;100496.38;105113;1262;69141;-57
2023/12/09 09:16:30;;;;;;;28.90;19.20;;;;;;;1.18;100.00;100495.36;105176;1257;69153;-58
2023/12/09 09:18:59;;;;;;;32.70;20.60;;;;;;;1.19;100.00;100489.33;105114;1256;72539;-54
2023/12/09 09:21:27;;;;;;;36.40;20.30;;;;;;;1.19;100.00;100485.20;105257;1260;81263;-58
2023/12/09 09:23:55;;;;;;;33.30;20.00;;;;;;;1.22;100.00;100483.83;105095;1256;71863;-53
2023/12/09 09:26:24;;;;;;;31.40;20.00;;;;;;;1.29;100.00;100483.33;105166;1262;69196;-57
2023/12/09 09:28:52;;;;;;;33.90;20.20;;;;;;;1.36;100.00;100478.02;105101;1257;69170;-58
2023/12/09 09:31:20;;;;;;;39.10;20.70;;;;;;;1.41;100.00;100476.28;105140;1257;74149;-57
2023/12/09 09:33:48;;;;;;;34.80;19.70;;;;;;;1.42;100.00;100471.83;105298;1261;81904;-58
2023/12/09 09:36:17;;;;;;;35.80;19.50;;;;;;;1.42;100.00;100472.17;105155;1256;71427;-57
2023/12/09 09:38:47;;;;;;;35.10;21.40;;;;;;;1.42;100.00;100467.17;105152;1257;69176;-55
2023/12/09 09:41:23;;;;;;;35.10;21.00;;;;;;;1.42;100.00;100464.94;105324;1258;69287;-58
2023/12/09 09:43:58;;;;;;;36.80;21.50;;;;;;;1.43;100.00;100458.39;105182;1256;72582;-58
2023/12/09 09:46:27;;;;;;;34.40;21.50;;;;;;;1.43;100.00;100457.88;105213;1257;80568;-58
2023/12/09 09:48:55;;;;;;;36.00;22.00;;;;;;;1.44;100.00;100458.73;105284;1257;71915;-58
2023/12/09 09:51:26;;;;;;;38.40;21.50;;;;;;;1.47;100.00;100453.23;105090;1257;69167;-58
2023/12/09 09:54:17;;;;;;;36.60;21.70;;;;;;;1.52;100.00;100443.77;105216;1257;69777;-57
2023/12/09 09:56:46;;;;;;;39.00;21.50;;;;;;;1.54;100.00;100441.52;105208;1256;73496;-56
2023/12/09 09:59:14;;;;;;;37.60;22.80;;;;;;;1.56;100.00;100433.77;105192;1262;81811;-57
2023/12/09 10:01:42;;;;;;;54.10;28.10;;;;;;;1.60;100.00;100437.05;105307;1257;72565;-58
2023/12/09 10:04:11;;;;;;;72.30;37.10;;;;;;;1.63;100.00;100434.11;105104;1261;69192;-57
2023/12/09 10:06:41;;;;;;;68.50;38.80;;;;;;;1.67;100.00;100437.05;105342;1261;69206;-58
2023/12/09 10:09:10;;;;;;;56.90;34.50;;;;;;;1.68;100.00;100433.27;105527;1256;74113;-58
2023/12/09 10:11:38;;;;;;;43.70;28.10;;;;;;;1.69;100.00;100432.73;105159;1257;80938;-58
2023/12/09 10:14:06;;;;;;;39.70;24.20;;;;;;;1.72;100.00;100431.02;105088;1261;71626;-57
2023/12/09 10:16:35;;;;;;;41.90;24.20;;;;;;;1.78;100.00;100428.08;105135;1262;69225;-57
2023/12/09 10:19:03;;;;;;;35.70;22.20;;;;;;;1.81;100.00;100423.44;105256;1261;69130;-57
2023/12/09 10:21:31;;;;;;;33.40;20.80;;;;;;;1.85;100.00;100422.74;105431;1256;73199;-58
2023/12/09 10:24:00;;;;;;;37.70;21.20;;;;;;;1.91;100.00;100420.49;105113;1262;81585;-58
2023/12/09 10:26:28;;;;;;;31.30;19.20;;;;;;;1.95;100.00;100417.73;105143;1257;73617;-56
2023/12/09 10:28:57;;;;;;;30.10;19.00;;;;;;;1.98;100.00;100415.14;105208;1257;69075;-58
2023/12/09 10:31:26;;;;;;;32.30;19.10;;;;;;;2.04;100.00;100413.06;105075;1262;69209;-57
2023/12/09 10:33:55;;;;;;;30.50;18.70;;;;;;;2.09;100.00;100412.88;105436;1262;73814;-56
2023/12/09 10:36:23;;;;;;;33.30;20.40;;;;;;;2.11;100.00;100412.02;105250;1257;80825;-58
2023/12/09 10:38:52;;;;;;;29.80;18.60;;;;;;;2.11;100.00;100408.23;105087;1256;73017;-57
2023/12/09 10:41:21;;;;;;;32.00;20.50;;;;;;;2.10;100.00;100400.98;105170;1257;69066;-58
2023/12/09 10:43:49;;;;;;;30.70;19.20;;;;;;;2.12;100.00;100395.98;105150;1262;69186;-58
2023/12/09 10:46:18;;;;;;;30.70;17.80;;;;;;;2.13;100.00;100394.43;105139;1259;71460;-58
2023/12/09 10:48:46;;;;;;;29.00;18.10;;;;;;;2.15;100.00;100393.39;105140;1256;83251;-57
2023/12/09 10:51:14;;;;;;;30.90;19.20;;;;;;;2.15;100.00;100398.90;105264;1261;71812;-58
2023/12/09 10:53:43;;;;;;;40.90;22.50;;;;;;;2.14;100.00;100396.49;105096;1262;69068;-58
2023/12/09 10:56:11;;;;;;;38.70;20.80;;;;;;;2.15;100.00;100394.06;105005;1257;148373;-58
2023/12/09 10:58:40;;;;;;;43.50;22.20;;;;;;;2.17;100.00;100393.73;105152;1257;73413;-58
2023/12/09 11:01:09;;;;;;;96.40;36.40;;;;;;;2.19;100.00;100391.64;105256;1262;81783;-58
2023/12/09 11:03:37;;;;;;;435.20;142.60;;;;;;;2.22;100.00;100388.53;105097;1261;71494;-58
2023/12/09 11:06:07;;;;;;;283.80;79.80;;;;;;;2.24;100.00;100389.58;105113;1262;69184;-58
2023/12/09 11:08:36;;;;;;;358.00;102.20;;;;;;;2.24;100.00;100386.63;105123;1257;69186;-58